sensor_id;sensor_type;location;lat;lon;timestamp;P1;durP1;ratioP1;P2;durP2;ratioP2
73776;SDS011;62088;50.240;2.696;2023-03-17T00:01:19;8.70;;;5.95;;
73776;SDS011;62088;50.240;2.696;2023-03-17T00:03:48;8.45;;;6.55;;
73776;SDS011;62088;50.240;2.696;2023-03-17T00:06:17;8.75;;;6.10;;
73776;SDS011;62088;50.240;2.696;2023-03-17T00:08:51;11.32;;;6.80;;
73776;SDS011;62088;50.240;2.696;2023-03-17T00:11:18;8.52;;;6.22;;
73776;SDS011;62088;50.240;2.696;2023-03-17T00:13:46;10.82;;;6.78;;
73776;SDS011;62088;50.240;2.696;2023-03-17T00:18:50;12.23;;;6.40;;
73776;SDS011;62088;50.240;2.696;2023-03-17T00:21:37;13.38;;;6.90;;
73776;SDS011;62088;50.240;2.696;2023-03-17T00:24:04;7.65;;;5.55;;
73776;SDS011;62088;50.240;2.696;2023-03-17T00:26:35;8.77;;;6.53;;
73776;SDS011;62088;50.240;2.696;2023-03-17T00:29:03;8.98;;;5.95;;
73776;SDS011;62088;50.240;2.696;2023-03-17T00:31:31;7.78;;;6.25;;
73776;SDS011;62088;50.240;2.696;2023-03-17T00:33:59;8.10;;;5.75;;
73776;SDS011;62088;50.240;2.696;2023-03-17T00:36:27;9.75;;;6.47;;
73776;SDS011;62088;50.240;2.696;2023-03-17T00:38:57;9.00;;;5.68;;
73776;SDS011;62088;50.240;2.696;2023-03-17T00:41:24;7.57;;;6.07;;
73776;SDS011;62088;50.240;2.696;2023-03-17T00:43:52;8.13;;;6.50;;
73776;SDS011;62088;50.240;2.696;2023-03-17T00:46:22;9.68;;;6.38;;
73776;SDS011;62088;50.240;2.696;2023-03-17T00:48:53;8.77;;;5.97;;
73776;SDS011;62088;50.240;2.696;2023-03-17T00:51:20;7.72;;;5.50;;
73776;SDS011;62088;50.240;2.696;2023-03-17T00:53:48;7.35;;;5.55;;
73776;SDS011;62088;50.240;2.696;2023-03-17T00:56:16;8.95;;;6.18;;
73776;SDS011;62088;50.240;2.696;2023-03-17T00:58:46;7.93;;;6.35;;
73776;SDS011;62088;50.240;2.696;2023-03-17T01:01:14;7.22;;;5.50;;
73776;SDS011;62088;50.240;2.696;2023-03-17T01:03:41;7.60;;;5.47;;
73776;SDS011;62088;50.240;2.696;2023-03-17T01:06:09;8.98;;;6.18;;
73776;SDS011;62088;50.240;2.696;2023-03-17T01:08:39;8.48;;;5.53;;
73776;SDS011;62088;50.240;2.696;2023-03-17T01:11:16;8.55;;;5.78;;
73776;SDS011;62088;50.240;2.696;2023-03-17T01:13:45;7.35;;;5.72;;
73776;SDS011;62088;50.240;2.696;2023-03-17T01:16:13;7.32;;;5.35;;
73776;SDS011;62088;50.240;2.696;2023-03-17T01:18:41;9.90;;;5.38;;
73776;SDS011;62088;50.240;2.696;2023-03-17T01:21:09;8.15;;;5.82;;
73776;SDS011;62088;50.240;2.696;2023-03-17T01:23:36;8.00;;;4.75;;
73776;SDS011;62088;50.240;2.696;2023-03-17T01:34:02;14.07;;;5.78;;
73776;SDS011;62088;50.240;2.696;2023-03-17T01:36:31;10.20;;;5.80;;
73776;SDS011;62088;50.240;2.696;2023-03-17T01:38:59;9.73;;;6.55;;
73776;SDS011;62088;50.240;2.696;2023-03-17T01:41:26;8.30;;;5.50;;
73776;SDS011;62088;50.240;2.696;2023-03-17T01:43:53;9.45;;;5.80;;
73776;SDS011;62088;50.240;2.696;2023-03-17T01:46:30;10.43;;;6.00;;
73776;SDS011;62088;50.240;2.696;2023-03-17T01:51:44;7.72;;;5.40;;
73776;SDS011;62088;50.240;2.696;2023-03-17T01:56:52;8.60;;;5.85;;
73776;SDS011;62088;50.240;2.696;2023-03-17T01:59:25;9.85;;;5.13;;
73776;SDS011;62088;50.240;2.696;2023-03-17T02:01:57;7.88;;;5.95;;
73776;SDS011;62088;50.240;2.696;2023-03-17T02:04:34;8.57;;;5.38;;
73776;SDS011;62088;50.240;2.696;2023-03-17T02:07:02;12.35;;;6.15;;
73776;SDS011;62088;50.240;2.696;2023-03-17T02:09:30;8.30;;;5.78;;
73776;SDS011;62088;50.240;2.696;2023-03-17T02:11:59;8.38;;;5.38;;
73776;SDS011;62088;50.240;2.696;2023-03-17T02:14:28;9.15;;;5.80;;
73776;SDS011;62088;50.240;2.696;2023-03-17T02:16:55;18.17;;;5.72;;
73776;SDS011;62088;50.240;2.696;2023-03-17T02:19:23;8.68;;;5.80;;
73776;SDS011;62088;50.240;2.696;2023-03-17T02:21:51;8.02;;;5.78;;
73776;SDS011;62088;50.240;2.696;2023-03-17T02:24:33;7.90;;;4.50;;
73776;SDS011;62088;50.240;2.696;2023-03-17T02:27:09;8.75;;;5.18;;
73776;SDS011;62088;50.240;2.696;2023-03-17T02:29:41;10.13;;;5.15;;
73776;SDS011;62088;50.240;2.696;2023-03-17T02:32:12;7.05;;;5.20;;
73776;SDS011;62088;50.240;2.696;2023-03-17T02:34:43;9.30;;;5.63;;
73776;SDS011;62088;50.240;2.696;2023-03-17T02:37:12;8.60;;;5.60;;
73776;SDS011;62088;50.240;2.696;2023-03-17T02:39:39;8.70;;;5.43;;
73776;SDS011;62088;50.240;2.696;2023-03-17T02:42:06;8.13;;;5.13;;
73776;SDS011;62088;50.240;2.696;2023-03-17T02:44:34;8.30;;;4.55;;
73776;SDS011;62088;50.240;2.696;2023-03-17T02:47:02;7.70;;;5.72;;
73776;SDS011;62088;50.240;2.696;2023-03-17T02:49:29;8.55;;;5.35;;
73776;SDS011;62088;50.240;2.696;2023-03-17T02:51:57;9.40;;;5.47;;
73776;SDS011;62088;50.240;2.696;2023-03-17T02:54:24;17.50;;;5.05;;
73776;SDS011;62088;50.240;2.696;2023-03-17T02:56:51;8.48;;;5.80;;
73776;SDS011;62088;50.240;2.696;2023-03-17T02:59:18;9.63;;;5.40;;
73776;SDS011;62088;50.240;2.696;2023-03-17T03:01:46;8.88;;;5.50;;
73776;SDS011;62088;50.240;2.696;2023-03-17T03:04:14;9.30;;;6.05;;
73776;SDS011;62088;50.240;2.696;2023-03-17T03:06:40;10.35;;;5.40;;
73776;SDS011;62088;50.240;2.696;2023-03-17T03:09:10;9.90;;;5.25;;
73776;SDS011;62088;50.240;2.696;2023-03-17T03:11:38;7.63;;;4.90;;
73776;SDS011;62088;50.240;2.696;2023-03-17T03:14:06;7.28;;;4.68;;
73776;SDS011;62088;50.240;2.696;2023-03-17T03:16:33;9.25;;;5.25;;
73776;SDS011;62088;50.240;2.696;2023-03-17T03:19:00;7.40;;;5.10;;
73776;SDS011;62088;50.240;2.696;2023-03-17T03:21:28;8.60;;;5.95;;
73776;SDS011;62088;50.240;2.696;2023-03-17T03:23:55;7.53;;;5.22;;
73776;SDS011;62088;50.240;2.696;2023-03-17T03:26:22;8.88;;;5.25;;
73776;SDS011;62088;50.240;2.696;2023-03-17T03:28:49;8.43;;;5.78;;
73776;SDS011;62088;50.240;2.696;2023-03-17T03:31:16;6.10;;;4.18;;
73776;SDS011;62088;50.240;2.696;2023-03-17T03:33:43;7.00;;;5.13;;
73776;SDS011;62088;50.240;2.696;2023-03-17T03:36:11;7.28;;;4.70;;
73776;SDS011;62088;50.240;2.696;2023-03-17T03:38:39;7.32;;;5.20;;
73776;SDS011;62088;50.240;2.696;2023-03-17T03:41:07;10.57;;;5.25;;
73776;SDS011;62088;50.240;2.696;2023-03-17T03:43:34;8.55;;;5.50;;
73776;SDS011;62088;50.240;2.696;2023-03-17T03:46:02;9.32;;;5.07;;
73776;SDS011;62088;50.240;2.696;2023-03-17T03:48:29;7.13;;;4.53;;
73776;SDS011;62088;50.240;2.696;2023-03-17T03:50:57;6.85;;;5.03;;
73776;SDS011;62088;50.240;2.696;2023-03-17T03:53:26;8.65;;;4.40;;
73776;SDS011;62088;50.240;2.696;2023-03-17T03:55:55;8.48;;;5.25;;
73776;SDS011;62088;50.240;2.696;2023-03-17T03:58:22;7.63;;;5.03;;
73776;SDS011;62088;50.240;2.696;2023-03-17T04:00:49;8.02;;;4.80;;
73776;SDS011;62088;50.240;2.696;2023-03-17T04:03:16;7.93;;;5.03;;
73776;SDS011;62088;50.240;2.696;2023-03-17T04:05:43;7.13;;;4.60;;
73776;SDS011;62088;50.240;2.696;2023-03-17T04:08:10;7.53;;;5.28;;
73776;SDS011;62088;50.240;2.696;2023-03-17T04:10:37;8.38;;;5.57;;
73776;SDS011;62088;50.240;2.696;2023-03-17T04:13:04;9.50;;;5.20;;
73776;SDS011;62088;50.240;2.696;2023-03-17T04:15:32;7.90;;;5.25;;
73776;SDS011;62088;50.240;2.696;2023-03-17T04:17:59;10.10;;;6.00;;
73776;SDS011;62088;50.240;2.696;2023-03-17T04:20:26;6.55;;;4.20;;
73776;SDS011;62088;50.240;2.696;2023-03-17T04:22:53;7.95;;;5.22;;
73776;SDS011;62088;50.240;2.696;2023-03-17T04:25:21;8.52;;;5.60;;
73776;SDS011;62088;50.240;2.696;2023-03-17T04:27:48;7.57;;;5.05;;
73776;SDS011;62088;50.240;2.696;2023-03-17T04:30:15;8.27;;;5.20;;
73776;SDS011;62088;50.240;2.696;2023-03-17T04:32:43;7.68;;;5.07;;
73776;SDS011;62088;50.240;2.696;2023-03-17T04:35:14;8.50;;;4.50;;
73776;SDS011;62088;50.240;2.696;2023-03-17T04:37:44;9.25;;;5.55;;
73776;SDS011;62088;50.240;2.696;2023-03-17T04:40:11;8.00;;;5.28;;
73776;SDS011;62088;50.240;2.696;2023-03-17T04:42:40;7.30;;;4.10;;
73776;SDS011;62088;50.240;2.696;2023-03-17T04:45:08;11.02;;;4.97;;
73776;SDS011;62088;50.240;2.696;2023-03-17T04:47:37;12.93;;;4.97;;
73776;SDS011;62088;50.240;2.696;2023-03-17T04:50:04;7.10;;;4.40;;
73776;SDS011;62088;50.240;2.696;2023-03-17T04:52:34;7.40;;;4.63;;
73776;SDS011;62088;50.240;2.696;2023-03-17T04:55:02;7.25;;;4.78;;
73776;SDS011;62088;50.240;2.696;2023-03-17T04:57:31;7.38;;;5.07;;
73776;SDS011;62088;50.240;2.696;2023-03-17T04:59:58;9.85;;;5.38;;
73776;SDS011;62088;50.240;2.696;2023-03-17T05:02:26;9.88;;;4.65;;
73776;SDS011;62088;50.240;2.696;2023-03-17T05:04:54;8.55;;;5.40;;
73776;SDS011;62088;50.240;2.696;2023-03-17T05:07:21;8.93;;;5.85;;
73776;SDS011;62088;50.240;2.696;2023-03-17T05:09:48;9.65;;;5.50;;
73776;SDS011;62088;50.240;2.696;2023-03-17T05:12:15;8.77;;;4.82;;
73776;SDS011;62088;50.240;2.696;2023-03-17T05:14:42;7.55;;;5.35;;
73776;SDS011;62088;50.240;2.696;2023-03-17T05:17:09;9.40;;;5.00;;
73776;SDS011;62088;50.240;2.696;2023-03-17T05:19:36;10.60;;;5.50;;
73776;SDS011;62088;50.240;2.696;2023-03-17T05:22:03;7.55;;;4.60;;
73776;SDS011;62088;50.240;2.696;2023-03-17T05:24:31;7.57;;;4.28;;
73776;SDS011;62088;50.240;2.696;2023-03-17T05:26:58;6.57;;;3.85;;
73776;SDS011;62088;50.240;2.696;2023-03-17T05:29:25;8.52;;;4.95;;
73776;SDS011;62088;50.240;2.696;2023-03-17T05:31:53;10.77;;;5.22;;
73776;SDS011;62088;50.240;2.696;2023-03-17T05:34:20;7.32;;;4.93;;
73776;SDS011;62088;50.240;2.696;2023-03-17T05:36:47;8.13;;;5.22;;
73776;SDS011;62088;50.240;2.696;2023-03-17T05:39:14;7.97;;;5.18;;
73776;SDS011;62088;50.240;2.696;2023-03-17T05:41:41;9.32;;;5.25;;
73776;SDS011;62088;50.240;2.696;2023-03-17T05:44:08;7.97;;;5.18;;
73776;SDS011;62088;50.240;2.696;2023-03-17T05:46:35;9.98;;;5.40;;
73776;SDS011;62088;50.240;2.696;2023-03-17T05:49:03;7.38;;;4.68;;
73776;SDS011;62088;50.240;2.696;2023-03-17T05:51:30;9.35;;;5.07;;
73776;SDS011;62088;50.240;2.696;2023-03-17T05:53:57;9.05;;;5.13;;
73776;SDS011;62088;50.240;2.696;2023-03-17T05:56:24;7.10;;;4.88;;
73776;SDS011;62088;50.240;2.696;2023-03-17T05:58:52;8.90;;;4.75;;
73776;SDS011;62088;50.240;2.696;2023-03-17T06:01:19;8.70;;;5.22;;
73776;SDS011;62088;50.240;2.696;2023-03-17T06:03:47;8.55;;;4.45;;
73776;SDS011;62088;50.240;2.696;2023-03-17T06:06:15;6.70;;;4.90;;
73776;SDS011;62088;50.240;2.696;2023-03-17T06:08:42;8.15;;;5.65;;
73776;SDS011;62088;50.240;2.696;2023-03-17T06:11:10;9.98;;;4.63;;
73776;SDS011;62088;50.240;2.696;2023-03-17T06:13:37;7.43;;;4.70;;
73776;SDS011;62088;50.240;2.696;2023-03-17T06:16:04;6.70;;;4.25;;
73776;SDS011;62088;50.240;2.696;2023-03-17T06:18:32;7.53;;;5.28;;
73776;SDS011;62088;50.240;2.696;2023-03-17T06:20:59;6.88;;;4.05;;
73776;SDS011;62088;50.240;2.696;2023-03-17T06:23:26;8.63;;;4.90;;
73776;SDS011;62088;50.240;2.696;2023-03-17T06:25:53;8.95;;;4.88;;
73776;SDS011;62088;50.240;2.696;2023-03-17T06:28:20;6.40;;;3.80;;
73776;SDS011;62088;50.240;2.696;2023-03-17T06:30:47;11.20;;;5.40;;
73776;SDS011;62088;50.240;2.696;2023-03-17T06:33:15;8.63;;;4.90;;
73776;SDS011;62088;50.240;2.696;2023-03-17T06:35:43;10.45;;;5.13;;
73776;SDS011;62088;50.240;2.696;2023-03-17T06:38:11;6.93;;;4.63;;
73776;SDS011;62088;50.240;2.696;2023-03-17T06:40:38;7.30;;;4.82;;
73776;SDS011;62088;50.240;2.696;2023-03-17T06:43:06;9.07;;;5.35;;
73776;SDS011;62088;50.240;2.696;2023-03-17T06:45:32;9.50;;;5.30;;
73776;SDS011;62088;50.240;2.696;2023-03-17T06:48:00;10.20;;;6.63;;
73776;SDS011;62088;50.240;2.696;2023-03-17T06:50:27;10.73;;;6.35;;
73776;SDS011;62088;50.240;2.696;2023-03-17T06:52:55;11.05;;;5.88;;
73776;SDS011;62088;50.240;2.696;2023-03-17T06:55:22;10.13;;;6.38;;
73776;SDS011;62088;50.240;2.696;2023-03-17T06:57:49;9.20;;;5.80;;
73776;SDS011;62088;50.240;2.696;2023-03-17T07:00:18;7.75;;;5.45;;
73776;SDS011;62088;50.240;2.696;2023-03-17T07:02:46;9.43;;;6.78;;
73776;SDS011;62088;50.240;2.696;2023-03-17T07:05:14;12.68;;;6.95;;
73776;SDS011;62088;50.240;2.696;2023-03-17T07:07:41;9.95;;;6.68;;
73776;SDS011;62088;50.240;2.696;2023-03-17T07:10:09;9.93;;;6.18;;
73776;SDS011;62088;50.240;2.696;2023-03-17T07:12:36;8.23;;;4.90;;
73776;SDS011;62088;50.240;2.696;2023-03-17T07:15:03;10.65;;;6.03;;
73776;SDS011;62088;50.240;2.696;2023-03-17T07:17:31;10.77;;;6.75;;
73776;SDS011;62088;50.240;2.696;2023-03-17T07:19:58;10.77;;;6.05;;
73776;SDS011;62088;50.240;2.696;2023-03-17T07:22:26;7.82;;;5.20;;
73776;SDS011;62088;50.240;2.696;2023-03-17T07:24:53;10.40;;;6.60;;
73776;SDS011;62088;50.240;2.696;2023-03-17T07:27:20;8.20;;;5.78;;
73776;SDS011;62088;50.240;2.696;2023-03-17T07:29:50;9.77;;;6.43;;
73776;SDS011;62088;50.240;2.696;2023-03-17T07:32:18;10.40;;;5.70;;
73776;SDS011;62088;50.240;2.696;2023-03-17T07:34:45;14.30;;;7.03;;
73776;SDS011;62088;50.240;2.696;2023-03-17T07:37:12;10.02;;;5.88;;
73776;SDS011;62088;50.240;2.696;2023-03-17T07:39:39;12.80;;;6.55;;
73776;SDS011;62088;50.240;2.696;2023-03-17T07:42:06;10.18;;;5.88;;
73776;SDS011;62088;50.240;2.696;2023-03-17T07:44:34;10.98;;;5.93;;
73776;SDS011;62088;50.240;2.696;2023-03-17T07:47:03;12.60;;;6.57;;
73776;SDS011;62088;50.240;2.696;2023-03-17T07:49:30;9.75;;;5.90;;
73776;SDS011;62088;50.240;2.696;2023-03-17T07:52:07;13.90;;;6.00;;
73776;SDS011;62088;50.240;2.696;2023-03-17T07:54:35;12.07;;;6.80;;
73776;SDS011;62088;50.240;2.696;2023-03-17T07:57:03;10.00;;;5.43;;
73776;SDS011;62088;50.240;2.696;2023-03-17T07:59:30;16.33;;;5.55;;
73776;SDS011;62088;50.240;2.696;2023-03-17T08:01:58;9.40;;;4.82;;
73776;SDS011;62088;50.240;2.696;2023-03-17T08:04:26;9.30;;;5.45;;
73776;SDS011;62088;50.240;2.696;2023-03-17T08:06:54;12.98;;;5.50;;
73776;SDS011;62088;50.240;2.696;2023-03-17T08:09:22;7.82;;;5.43;;
73776;SDS011;62088;50.240;2.696;2023-03-17T08:11:49;9.30;;;5.22;;
73776;SDS011;62088;50.240;2.696;2023-03-17T08:14:16;12.18;;;5.63;;
73776;SDS011;62088;50.240;2.696;2023-03-17T08:16:44;6.72;;;4.40;;
73776;SDS011;62088;50.240;2.696;2023-03-17T08:19:11;11.90;;;5.15;;
73776;SDS011;62088;50.240;2.696;2023-03-17T08:21:38;9.15;;;4.72;;
73776;SDS011;62088;50.240;2.696;2023-03-17T08:24:05;9.25;;;4.90;;
73776;SDS011;62088;50.240;2.696;2023-03-17T08:26:32;9.00;;;4.72;;
73776;SDS011;62088;50.240;2.696;2023-03-17T08:28:59;9.27;;;4.70;;
73776;SDS011;62088;50.240;2.696;2023-03-17T08:31:27;9.55;;;5.05;;
73776;SDS011;62088;50.240;2.696;2023-03-17T08:33:54;10.10;;;5.10;;
73776;SDS011;62088;50.240;2.696;2023-03-17T08:36:22;8.55;;;4.88;;
73776;SDS011;62088;50.240;2.696;2023-03-17T08:38:49;15.63;;;5.03;;
73776;SDS011;62088;50.240;2.696;2023-03-17T08:41:18;47.83;;;7.30;;
73776;SDS011;62088;50.240;2.696;2023-03-17T08:43:48;40.35;;;6.55;;
73776;SDS011;62088;50.240;2.696;2023-03-17T08:46:17;12.57;;;4.75;;
73776;SDS011;62088;50.240;2.696;2023-03-17T08:48:47;19.13;;;5.80;;
73776;SDS011;62088;50.240;2.696;2023-03-17T08:51:16;52.65;;;7.35;;
73776;SDS011;62088;50.240;2.696;2023-03-17T08:53:49;22.27;;;7.53;;
73776;SDS011;62088;50.240;2.696;2023-03-17T08:56:17;12.68;;;6.10;;
73776;SDS011;62088;50.240;2.696;2023-03-17T08:58:44;11.75;;;6.13;;
73776;SDS011;62088;50.240;2.696;2023-03-17T09:01:12;10.18;;;5.22;;
73776;SDS011;62088;50.240;2.696;2023-03-17T09:03:41;8.93;;;6.05;;
73776;SDS011;62088;50.240;2.696;2023-03-17T09:06:09;7.55;;;4.80;;
73776;SDS011;62088;50.240;2.696;2023-03-17T09:08:38;10.75;;;5.05;;
73776;SDS011;62088;50.240;2.696;2023-03-17T09:11:12;11.90;;;5.15;;
73776;SDS011;62088;50.240;2.696;2023-03-17T09:13:42;9.40;;;4.90;;
73776;SDS011;62088;50.240;2.696;2023-03-17T09:16:10;7.03;;;4.50;;
73776;SDS011;62088;50.240;2.696;2023-03-17T09:18:38;10.73;;;5.25;;
73776;SDS011;62088;50.240;2.696;2023-03-17T09:21:05;11.57;;;5.30;;
73776;SDS011;62088;50.240;2.696;2023-03-17T09:23:32;14.15;;;5.30;;
73776;SDS011;62088;50.240;2.696;2023-03-17T09:26:00;9.18;;;5.28;;
73776;SDS011;62088;50.240;2.696;2023-03-17T09:28:27;10.30;;;5.25;;
73776;SDS011;62088;50.240;2.696;2023-03-17T09:30:58;13.60;;;5.22;;
73776;SDS011;62088;50.240;2.696;2023-03-17T09:33:26;80.78;;;9.68;;
73776;SDS011;62088;50.240;2.696;2023-03-17T09:35:54;180.30;;;17.63;;
73776;SDS011;62088;50.240;2.696;2023-03-17T09:38:25;16.45;;;5.80;;
73776;SDS011;62088;50.240;2.696;2023-03-17T09:43:30;7.78;;;4.47;;
73776;SDS011;62088;50.240;2.696;2023-03-17T09:46:21;10.82;;;5.07;;
73776;SDS011;62088;50.240;2.696;2023-03-17T09:49:06;8.95;;;4.97;;
73776;SDS011;62088;50.240;2.696;2023-03-17T09:51:37;9.25;;;4.95;;
73776;SDS011;62088;50.240;2.696;2023-03-17T09:54:12;9.15;;;4.60;;
73776;SDS011;62088;50.240;2.696;2023-03-17T09:56:55;9.32;;;4.55;;
73776;SDS011;62088;50.240;2.696;2023-03-17T09:59:33;7.90;;;5.03;;
73776;SDS011;62088;50.240;2.696;2023-03-17T10:02:17;8.40;;;4.70;;
73776;SDS011;62088;50.240;2.696;2023-03-17T10:04:49;8.75;;;5.10;;
73776;SDS011;62088;50.240;2.696;2023-03-17T10:07:38;13.55;;;5.47;;
73776;SDS011;62088;50.240;2.696;2023-03-17T10:25:11;9.27;;;4.70;;
73776;SDS011;62088;50.240;2.696;2023-03-17T10:27:47;8.75;;;4.50;;
73776;SDS011;62088;50.240;2.696;2023-03-17T10:30:34;8.13;;;4.32;;
73776;SDS011;62088;50.240;2.696;2023-03-17T10:33:03;8.98;;;4.20;;
73776;SDS011;62088;50.240;2.696;2023-03-17T10:35:35;12.07;;;4.40;;
73776;SDS011;62088;50.240;2.696;2023-03-17T10:40:43;9.77;;;4.45;;
73776;SDS011;62088;50.240;2.696;2023-03-17T10:43:17;10.68;;;4.93;;
73776;SDS011;62088;50.240;2.696;2023-03-17T10:46:05;7.45;;;3.85;;
73776;SDS011;62088;50.240;2.696;2023-03-17T10:48:42;12.88;;;4.28;;
73776;SDS011;62088;50.240;2.696;2023-03-17T10:51:31;7.05;;;4.03;;
73776;SDS011;62088;50.240;2.696;2023-03-17T10:54:08;9.70;;;4.50;;
73776;SDS011;62088;50.240;2.696;2023-03-17T10:56:38;11.25;;;4.60;;
73776;SDS011;62088;50.240;2.696;2023-03-17T10:59:14;11.98;;;4.60;;
73776;SDS011;62088;50.240;2.696;2023-03-17T11:01:46;7.03;;;3.97;;
73776;SDS011;62088;50.240;2.696;2023-03-17T11:06:56;8.85;;;4.43;;
73776;SDS011;62088;50.240;2.696;2023-03-17T11:09:26;7.53;;;4.10;;
73776;SDS011;62088;50.240;2.696;2023-03-17T11:12:06;8.77;;;4.47;;
73776;SDS011;62088;50.240;2.696;2023-03-17T11:14:47;9.00;;;4.35;;
73776;SDS011;62088;50.240;2.696;2023-03-17T11:17:37;6.95;;;4.40;;
73776;SDS011;62088;50.240;2.696;2023-03-17T11:23:03;10.85;;;4.45;;
73776;SDS011;62088;50.240;2.696;2023-03-17T11:25:41;9.75;;;4.07;;
73776;SDS011;62088;50.240;2.696;2023-03-17T11:30:53;9.93;;;4.30;;
73776;SDS011;62088;50.240;2.696;2023-03-17T11:39:14;10.23;;;3.70;;
73776;SDS011;62088;50.240;2.696;2023-03-17T11:48:01;7.40;;;4.13;;
73776;SDS011;62088;50.240;2.696;2023-03-17T11:51:17;10.50;;;5.07;;
73776;SDS011;62088;50.240;2.696;2023-03-17T11:53:49;9.07;;;3.75;;
73776;SDS011;62088;50.240;2.696;2023-03-17T11:59:19;8.75;;;3.72;;
73776;SDS011;62088;50.240;2.696;2023-03-17T12:02:14;8.70;;;4.03;;
73776;SDS011;62088;50.240;2.696;2023-03-17T12:04:55;8.75;;;4.15;;
73776;SDS011;62088;50.240;2.696;2023-03-17T12:07:31;9.15;;;4.10;;
73776;SDS011;62088;50.240;2.696;2023-03-17T12:10:36;7.75;;;4.55;;
73776;SDS011;62088;50.240;2.696;2023-03-17T12:13:22;9.02;;;5.22;;
73776;SDS011;62088;50.240;2.696;2023-03-17T12:15:59;8.07;;;5.10;;
73776;SDS011;62088;50.240;2.696;2023-03-17T12:18:44;9.45;;;5.57;;
73776;SDS011;62088;50.240;2.696;2023-03-17T12:21:24;12.32;;;5.30;;
73776;SDS011;62088;50.240;2.696;2023-03-17T12:24:12;11.70;;;5.10;;
73776;SDS011;62088;50.240;2.696;2023-03-17T12:29:41;10.52;;;4.38;;
73776;SDS011;62088;50.240;2.696;2023-03-17T12:32:20;11.35;;;4.18;;
73776;SDS011;62088;50.240;2.696;2023-03-17T12:35:10;9.70;;;4.15;;
73776;SDS011;62088;50.240;2.696;2023-03-17T12:37:47;10.20;;;3.88;;
73776;SDS011;62088;50.240;2.696;2023-03-17T12:40:16;8.38;;;3.30;;
73776;SDS011;62088;50.240;2.696;2023-03-17T12:42:51;11.05;;;3.05;;
73776;SDS011;62088;50.240;2.696;2023-03-17T12:45:47;8.50;;;2.97;;
73776;SDS011;62088;50.240;2.696;2023-03-17T12:57:03;9.50;;;3.53;;
73776;SDS011;62088;50.240;2.696;2023-03-17T12:59:40;9.80;;;3.35;;
73776;SDS011;62088;50.240;2.696;2023-03-17T13:04:56;7.72;;;3.47;;
73776;SDS011;62088;50.240;2.696;2023-03-17T13:07:32;12.20;;;4.35;;
73776;SDS011;62088;50.240;2.696;2023-03-17T13:16:37;11.88;;;3.83;;
73776;SDS011;62088;50.240;2.696;2023-03-17T13:19:15;7.43;;;3.50;;
73776;SDS011;62088;50.240;2.696;2023-03-17T13:24:48;11.05;;;3.80;;
73776;SDS011;62088;50.240;2.696;2023-03-17T13:29:58;15.48;;;4.10;;
73776;SDS011;62088;50.240;2.696;2023-03-17T13:32:53;12.63;;;3.88;;
73776;SDS011;62088;50.240;2.696;2023-03-17T13:35:24;9.85;;;4.05;;
73776;SDS011;62088;50.240;2.696;2023-03-17T13:43:45;9.45;;;3.60;;
73776;SDS011;62088;50.240;2.696;2023-03-17T13:46:26;9.88;;;4.05;;
73776;SDS011;62088;50.240;2.696;2023-03-17T13:51:53;13.98;;;4.57;;
73776;SDS011;62088;50.240;2.696;2023-03-17T13:57:35;8.32;;;4.28;;
73776;SDS011;62088;50.240;2.696;2023-03-17T14:02:55;11.15;;;4.45;;
73776;SDS011;62088;50.240;2.696;2023-03-17T14:05:30;10.73;;;4.35;;
73776;SDS011;62088;50.240;2.696;2023-03-17T14:08:04;9.07;;;4.38;;
73776;SDS011;62088;50.240;2.696;2023-03-17T14:10:41;9.90;;;4.50;;
73776;SDS011;62088;50.240;2.696;2023-03-17T14:15:49;12.25;;;4.10;;
73776;SDS011;62088;50.240;2.696;2023-03-17T14:18:31;12.40;;;4.13;;
73776;SDS011;62088;50.240;2.696;2023-03-17T14:21:00;11.60;;;4.20;;
73776;SDS011;62088;50.240;2.696;2023-03-17T14:23:35;9.40;;;4.05;;
73776;SDS011;62088;50.240;2.696;2023-03-17T14:26:02;8.40;;;2.88;;
73776;SDS011;62088;50.240;2.696;2023-03-17T14:28:31;7.80;;;2.80;;
73776;SDS011;62088;50.240;2.696;2023-03-17T14:33:30;11.00;;;3.08;;
73776;SDS011;62088;50.240;2.696;2023-03-17T14:36:00;8.90;;;2.88;;
73776;SDS011;62088;50.240;2.696;2023-03-17T14:38:31;7.95;;;2.60;;
73776;SDS011;62088;50.240;2.696;2023-03-17T14:41:01;12.10;;;2.88;;
73776;SDS011;62088;50.240;2.696;2023-03-17T14:43:30;12.95;;;3.10;;
73776;SDS011;62088;50.240;2.696;2023-03-17T14:46:00;10.55;;;3.08;;
73776;SDS011;62088;50.240;2.696;2023-03-17T14:48:33;8.52;;;2.90;;
73776;SDS011;62088;50.240;2.696;2023-03-17T14:51:06;8.30;;;2.63;;
73776;SDS011;62088;50.240;2.696;2023-03-17T14:53:35;8.07;;;2.92;;
73776;SDS011;62088;50.240;2.696;2023-03-17T14:56:06;7.03;;;3.00;;
73776;SDS011;62088;50.240;2.696;2023-03-17T14:58:43;9.35;;;3.28;;
73776;SDS011;62088;50.240;2.696;2023-03-17T15:01:17;10.00;;;3.58;;
73776;SDS011;62088;50.240;2.696;2023-03-17T15:03:53;15.07;;;3.73;;
73776;SDS011;62088;50.240;2.696;2023-03-17T15:06:26;12.55;;;3.70;;
73776;SDS011;62088;50.240;2.696;2023-03-17T15:09:00;7.38;;;3.30;;
73776;SDS011;62088;50.240;2.696;2023-03-17T15:11:38;9.23;;;3.40;;
73776;SDS011;62088;50.240;2.696;2023-03-17T15:14:15;9.00;;;2.70;;
73776;SDS011;62088;50.240;2.696;2023-03-17T15:16:52;9.63;;;3.17;;
73776;SDS011;62088;50.240;2.696;2023-03-17T15:19:27;9.48;;;3.25;;
73776;SDS011;62088;50.240;2.696;2023-03-17T15:22:03;14.35;;;4.00;;
73776;SDS011;62088;50.240;2.696;2023-03-17T15:25:03;7.18;;;3.40;;
73776;SDS011;62088;50.240;2.696;2023-03-17T15:27:44;7.97;;;3.22;;
73776;SDS011;62088;50.240;2.696;2023-03-17T15:30:12;11.68;;;3.88;;
73776;SDS011;62088;50.240;2.696;2023-03-17T15:32:39;9.93;;;3.28;;
73776;SDS011;62088;50.240;2.696;2023-03-17T15:35:09;8.85;;;3.40;;
73776;SDS011;62088;50.240;2.696;2023-03-17T15:37:37;9.38;;;2.97;;
73776;SDS011;62088;50.240;2.696;2023-03-17T15:40:05;9.35;;;3.13;;
73776;SDS011;62088;50.240;2.696;2023-03-17T15:42:35;8.13;;;3.33;;
73776;SDS011;62088;50.240;2.696;2023-03-17T15:45:04;9.65;;;3.30;;
73776;SDS011;62088;50.240;2.696;2023-03-17T15:47:32;11.82;;;3.63;;
73776;SDS011;62088;50.240;2.696;2023-03-17T15:50:12;9.43;;;3.60;;
73776;SDS011;62088;50.240;2.696;2023-03-17T15:52:40;9.18;;;3.22;;
73776;SDS011;62088;50.240;2.696;2023-03-17T15:55:20;9.07;;;3.42;;
73776;SDS011;62088;50.240;2.696;2023-03-17T15:57:49;8.80;;;3.03;;
73776;SDS011;62088;50.240;2.696;2023-03-17T16:00:21;9.45;;;3.35;;
73776;SDS011;62088;50.240;2.696;2023-03-17T16:02:50;8.73;;;2.88;;
73776;SDS011;62088;50.240;2.696;2023-03-17T16:05:23;8.77;;;3.60;;
73776;SDS011;62088;50.240;2.696;2023-03-17T16:07:52;10.07;;;3.70;;
73776;SDS011;62088;50.240;2.696;2023-03-17T16:10:29;12.95;;;3.95;;
73776;SDS011;62088;50.240;2.696;2023-03-17T16:12:58;10.05;;;3.40;;
73776;SDS011;62088;50.240;2.696;2023-03-17T16:15:27;9.55;;;3.40;;
73776;SDS011;62088;50.240;2.696;2023-03-17T16:17:57;12.52;;;3.65;;
73776;SDS011;62088;50.240;2.696;2023-03-17T16:20:37;7.50;;;3.33;;
73776;SDS011;62088;50.240;2.696;2023-03-17T16:23:22;10.50;;;3.50;;
73776;SDS011;62088;50.240;2.696;2023-03-17T16:25:54;9.68;;;3.38;;
73776;SDS011;62088;50.240;2.696;2023-03-17T16:28:39;9.07;;;3.58;;
73776;SDS011;62088;50.240;2.696;2023-03-17T16:31:16;11.40;;;3.33;;
73776;SDS011;62088;50.240;2.696;2023-03-17T16:33:46;8.88;;;3.10;;
73776;SDS011;62088;50.240;2.696;2023-03-17T16:36:15;9.15;;;2.78;;
73776;SDS011;62088;50.240;2.696;2023-03-17T16:38:43;7.65;;;3.20;;
73776;SDS011;62088;50.240;2.696;2023-03-17T16:41:21;10.32;;;4.00;;
73776;SDS011;62088;50.240;2.696;2023-03-17T16:43:58;10.02;;;3.50;;
73776;SDS011;62088;50.240;2.696;2023-03-17T16:46:27;9.88;;;3.75;;
73776;SDS011;62088;50.240;2.696;2023-03-17T16:49:01;8.65;;;3.25;;
73776;SDS011;62088;50.240;2.696;2023-03-17T16:51:29;9.73;;;3.50;;